createdAt,value
2019-06-01T00:03:55.375Z,5.90
2019-06-01T00:09:57.552Z,5.45
2019-06-01T00:15:59.963Z,4.85
2019-06-01T00:22:02.204Z,4.42
2019-06-01T00:28:04.369Z,7.10
2019-06-01T00:34:06.620Z,6.85
2019-06-01T00:40:09.111Z,5.62
2019-06-01T00:46:11.328Z,5.17
2019-06-01T00:52:13.655Z,5.87
2019-06-01T00:58:15.838Z,6.30
2019-06-01T01:04:18.126Z,5.95
2019-06-01T01:10:20.635Z,6.03
2019-06-01T01:16:22.917Z,6.15
2019-06-01T01:22:25.407Z,6.90
2019-06-01T01:28:27.642Z,6.70
2019-06-01T01:34:29.811Z,6.33
2019-06-01T01:40:32.050Z,7.95
2019-06-01T01:46:34.323Z,8.15
2019-06-01T01:52:36.587Z,7.22
2019-06-01T01:58:38.799Z,8.65
2019-06-01T02:04:40.962Z,8.50
2019-06-01T02:10:43.325Z,7.80
2019-06-01T02:16:45.604Z,8.05
2019-06-01T02:22:49.836Z,8.10
2019-06-01T02:28:53.171Z,8.45
2019-06-01T02:34:56.395Z,9.78
2019-06-01T02:41:01.031Z,8.88
2019-06-01T02:47:04.116Z,7.90
2019-06-01T02:53:09.635Z,9.05
2019-06-01T02:59:11.951Z,8.83
2019-06-01T03:05:14.148Z,7.78
2019-06-01T03:11:20.655Z,8.08
2019-06-01T03:17:24.048Z,7.08
2019-06-01T03:23:26.846Z,7.20
2019-06-01T03:29:32.357Z,7.50
2019-06-01T03:35:34.806Z,7.70
2019-06-01T03:41:37.661Z,7.62
2019-06-01T03:47:39.942Z,9.25
2019-06-01T03:53:42.260Z,7.75
2019-06-01T03:59:44.516Z,8.63
2019-06-01T04:05:46.676Z,6.30
2019-06-01T04:11:48.961Z,7.33
2019-06-01T04:17:51.215Z,7.20
2019-06-01T04:23:53.459Z,7.47
2019-06-01T04:29:55.651Z,6.28
2019-06-01T04:35:57.820Z,6.75
2019-06-01T04:42:00.082Z,6.22
2019-06-01T04:48:02.374Z,6.12
2019-06-01T04:54:04.852Z,4.90
2019-06-01T05:00:12.670Z,5.78
2019-06-01T05:06:13.363Z,5.80
2019-06-01T05:12:15.916Z,5.80
2019-06-01T05:18:20.371Z,5.25
2019-06-01T05:24:22.647Z,6.15
2019-06-01T05:30:24.807Z,4.70
2019-06-01T05:36:27.160Z,7.83
2019-06-01T05:42:29.433Z,6.67
2019-06-01T05:48:31.960Z,6.58
2019-06-01T05:54:35.500Z,7.17
2019-06-01T06:00:40.211Z,7.25
2019-06-01T06:06:42.406Z,7.55
2019-06-01T06:12:44.816Z,8.70
2019-06-01T06:18:47.081Z,8.73
2019-06-01T06:24:49.243Z,9.88
2019-06-01T06:30:51.412Z,7.95
2019-06-01T06:36:53.654Z,10.43
2019-06-01T06:42:56.925Z,8.53
2019-06-01T06:48:59.291Z,8.03
2019-06-01T06:55:01.437Z,8.93
2019-06-01T07:01:03.655Z,9.85
2019-06-01T07:07:05.832Z,8.93
2019-06-01T07:13:08.457Z,8.98
2019-06-01T07:19:11.037Z,7.80
2019-06-01T07:25:14.434Z,8.35
2019-06-01T07:31:17.812Z,6.75
2019-06-01T07:37:20.689Z,6.87
2019-06-01T07:43:24.646Z,5.85
2019-06-01T07:49:27.214Z,6.40
2019-06-01T07:55:29.736Z,5.45
2019-06-01T08:01:32.857Z,5.67
2019-06-01T08:07:35.171Z,4.42
2019-06-01T08:13:37.473Z,5.75
2019-06-01T08:19:39.737Z,4.53
2019-06-01T08:25:41.980Z,5.28
2019-06-01T08:31:44.576Z,4.60
2019-06-01T08:37:47.852Z,5.85
2019-06-01T08:43:50.393Z,4.92
2019-06-01T08:49:52.585Z,5.15
2019-06-01T08:55:54.848Z,5.22
2019-06-01T09:01:57.190Z,5.20
2019-06-01T09:07:59.364Z,4.83
2019-06-01T09:14:01.595Z,4.15
2019-06-01T09:20:04.515Z,4.30
2019-06-01T09:26:06.688Z,3.52
2019-06-01T09:32:11.032Z,2.90
2019-06-01T09:38:13.111Z,2.90
2019-06-01T09:44:15.415Z,3.30
2019-06-01T09:50:17.579Z,2.77
2019-06-01T09:56:19.749Z,2.10
2019-06-01T10:02:22.095Z,2.65
2019-06-01T10:08:24.454Z,2.27
2019-06-01T10:14:26.761Z,2.80
2019-06-01T10:20:29.130Z,2.40
2019-06-01T10:26:31.784Z,2.27
2019-06-01T10:32:34.261Z,2.60
2019-06-01T10:38:37.412Z,2.30
2019-06-01T10:44:44.051Z,1.90
2019-06-01T10:50:43.921Z,2.30
2019-06-01T10:56:46.155Z,1.95
2019-06-01T11:02:48.489Z,2.17
2019-06-01T11:08:50.660Z,2.12
2019-06-01T11:14:53.952Z,1.90
2019-06-01T11:20:56.195Z,2.37
2019-06-01T11:27:00.655Z,1.80
2019-06-01T11:33:02.963Z,2.50
2019-06-01T11:39:05.964Z,2.00
2019-06-01T11:45:09.311Z,2.27
2019-06-01T11:51:11.536Z,2.10
2019-06-01T11:57:13.897Z,2.00
2019-06-01T12:03:16.226Z,2.70
2019-06-01T12:09:18.459Z,2.20
2019-06-01T12:15:20.764Z,1.90
2019-06-01T12:21:23.040Z,1.77
2019-06-01T12:27:27.991Z,2.12
2019-06-01T12:33:30.418Z,2.00
2019-06-01T12:39:32.757Z,1.90
2019-06-01T12:45:35.089Z,2.02
2019-06-01T12:51:37.411Z,1.90
2019-06-01T12:57:40.749Z,2.62
2019-06-01T13:03:43.595Z,2.60
2019-06-01T13:09:46.201Z,2.67
2019-06-01T13:15:49.357Z,2.35
2019-06-01T13:21:51.797Z,2.20
2019-06-01T13:27:56.166Z,2.17
2019-06-01T13:33:58.450Z,2.55
2019-06-01T13:40:00.702Z,2.55
2019-06-01T13:46:06.305Z,2.95
2019-06-01T13:52:07.216Z,2.47
2019-06-01T13:58:09.535Z,2.92
2019-06-01T14:04:11.845Z,2.70
2019-06-01T14:10:15.284Z,2.45
2019-06-01T14:16:22.363Z,2.58
2019-06-01T14:22:25.053Z,2.50
2019-06-01T14:28:27.528Z,2.40
2019-06-01T14:34:29.756Z,2.37
2019-06-01T14:40:32.357Z,2.87
2019-06-01T14:46:52.846Z,2.20
2019-06-01T14:52:43.166Z,2.30
2019-06-01T14:58:47.714Z,2.90
2019-06-01T15:04:51.985Z,2.10
2019-06-01T15:10:55.281Z,2.95
2019-06-01T15:16:58.114Z,2.75
2019-06-01T15:23:03.571Z,2.60
2019-06-01T15:29:07.876Z,2.75
2019-06-01T15:35:10.139Z,2.90
2019-06-01T15:41:12.473Z,3.75
2019-06-01T15:47:19.056Z,3.25
2019-06-01T15:53:21.197Z,3.25
2019-06-01T15:59:23.400Z,3.00
2019-06-01T16:05:25.774Z,2.60
2019-06-01T16:11:27.961Z,6.37
2019-06-01T16:17:30.511Z,4.10
2019-06-01T16:23:48.745Z,3.10
2019-06-01T16:29:37.203Z,2.50
2019-06-01T16:35:39.399Z,3.08
2019-06-01T16:41:41.760Z,2.50
2019-06-01T16:47:44.059Z,2.72
2019-06-01T16:53:46.524Z,2.72
2019-06-01T16:59:48.763Z,2.33
2019-06-01T17:05:51.078Z,2.92
2019-06-01T17:11:53.385Z,2.70
2019-06-01T17:17:57.274Z,2.50
2019-06-01T17:24:01.598Z,2.37
2019-06-01T17:30:09.307Z,2.20
2019-06-01T17:36:08.929Z,2.60
2019-06-01T17:42:11.371Z,2.77
2019-06-01T17:48:25.940Z,2.95
2019-06-01T17:54:18.295Z,3.17
2019-06-01T18:00:20.819Z,3.10
2019-06-01T18:06:28.382Z,3.58
2019-06-01T18:12:30.540Z,2.72
2019-06-01T18:18:33.102Z,3.22
2019-06-01T18:24:35.747Z,4.07
2019-06-01T18:30:39.577Z,4.05
2019-06-01T18:36:42.022Z,4.28
2019-06-01T18:42:47.302Z,4.20
2019-06-01T18:48:51.123Z,4.12
2019-06-01T18:54:53.460Z,4.97
2019-06-01T19:00:55.925Z,5.67
2019-06-01T19:06:58.257Z,5.30
2019-06-01T19:13:03.211Z,8.90
2019-06-01T19:19:06.248Z,11.73
2019-06-01T19:25:10.893Z,10.08
2019-06-01T19:31:15.719Z,6.67
2019-06-01T19:37:20.084Z,5.53
2019-06-01T19:43:22.406Z,4.55
2019-06-01T19:49:24.640Z,4.72
2019-06-01T19:55:30.519Z,4.55
2019-06-01T20:01:33.032Z,4.45
2019-06-01T20:07:36.625Z,4.90
2019-06-01T20:13:40.884Z,3.87
2019-06-01T20:19:43.382Z,4.30
2019-06-01T20:25:47.604Z,4.70
2019-06-01T20:31:52.073Z,5.10
2019-06-01T20:37:56.417Z,5.65
2019-06-01T20:43:58.730Z,5.58
2019-06-01T20:50:01.620Z,4.42
2019-06-01T20:56:05.786Z,5.30
2019-06-01T21:02:08.135Z,5.67
2019-06-01T21:08:10.510Z,5.80
2019-06-01T21:14:13.781Z,5.83
2019-06-01T21:20:22.136Z,5.62
2019-06-01T21:26:24.818Z,5.45
2019-06-01T21:32:30.500Z,6.12
2019-06-01T21:38:32.817Z,6.28
2019-06-01T21:44:35.390Z,8.03
2019-06-01T21:50:37.708Z,6.08
2019-06-01T21:56:40.138Z,6.37
2019-06-01T22:02:42.652Z,6.75
2019-06-01T22:08:52.174Z,6.87
2019-06-01T22:14:53.410Z,6.90
2019-06-01T22:20:55.855Z,6.30
2019-06-01T22:26:58.258Z,6.50
2019-06-01T22:33:02.744Z,7.08
2019-06-01T22:39:07.325Z,7.67
2019-06-01T22:45:12.204Z,6.40
2019-06-01T22:51:16.579Z,6.55
2019-06-01T22:57:20.386Z,5.87
2019-06-01T23:03:23.734Z,7.23
2019-06-01T23:09:27.317Z,7.22
2019-06-01T23:15:29.845Z,8.70
2019-06-01T23:21:33.158Z,7.97
2019-06-01T23:27:35.465Z,7.28
2019-06-01T23:33:39.788Z,6.50
2019-06-01T23:39:42.095Z,7.33
2019-06-01T23:45:44.358Z,9.55
2019-06-01T23:51:46.683Z,7.25
2019-06-01T23:57:48.936Z,6.73
